createdAt,value
2023-02-11T00:00:42.587Z,14.85
2023-02-11T00:03:09.747Z,14.40
2023-02-11T00:05:36.812Z,13.00
2023-02-11T00:08:03.520Z,14.13
2023-02-11T00:10:30.232Z,13.85
2023-02-11T00:12:56.863Z,15.05
2023-02-11T00:15:23.436Z,14.10
2023-02-11T00:17:50.023Z,14.17
2023-02-11T00:20:16.661Z,13.52
2023-02-11T00:22:43.638Z,11.80
2023-02-11T00:25:10.253Z,11.95
2023-02-11T00:27:37.690Z,14.20
2023-02-11T00:30:05.306Z,14.53
2023-02-11T00:32:32.211Z,14.88
2023-02-11T00:34:58.807Z,13.90
2023-02-11T00:37:25.633Z,13.32
2023-02-11T00:39:52.488Z,14.48
2023-02-11T00:42:19.048Z,13.53
2023-02-11T00:44:45.702Z,12.35
2023-02-11T00:47:12.368Z,12.30
2023-02-11T00:49:40.355Z,14.60
2023-02-11T00:52:07.280Z,13.57
2023-02-11T00:54:33.894Z,12.20
2023-02-11T00:57:00.533Z,14.27
2023-02-11T00:59:27.336Z,14.68
2023-02-11T01:01:53.937Z,15.25
2023-02-11T01:04:20.457Z,14.98
2023-02-11T01:06:47.122Z,14.20
2023-02-11T01:09:13.754Z,12.35
2023-02-11T01:11:40.358Z,14.07
2023-02-11T01:14:06.908Z,13.80
2023-02-11T01:16:33.501Z,14.23
2023-02-11T01:19:00.215Z,11.30
2023-02-11T01:21:26.925Z,14.50
2023-02-11T01:23:53.424Z,15.23
2023-02-11T01:26:20.101Z,14.95
2023-02-11T01:28:46.763Z,13.98
2023-02-11T01:31:13.899Z,13.85
2023-02-11T01:33:40.984Z,10.93
2023-02-11T01:36:08.421Z,14.93
2023-02-11T01:38:35.978Z,15.05
2023-02-11T01:41:06.157Z,14.93
2023-02-11T01:43:37.104Z,14.33
2023-02-11T01:46:36.682Z,14.15
2023-02-11T01:49:06.511Z,15.15
2023-02-11T01:51:38.702Z,14.80
2023-02-11T01:54:27.337Z,14.18
2023-02-11T01:57:15.535Z,14.15
2023-02-11T02:00:13.160Z,15.05
2023-02-11T02:03:00.698Z,15.38
2023-02-11T02:05:37.831Z,13.48
2023-02-11T02:08:13.828Z,16.05
2023-02-11T02:10:44.942Z,14.95
2023-02-11T02:13:11.852Z,16.10
2023-02-11T02:15:41.536Z,14.38
2023-02-11T02:18:22.861Z,16.08
2023-02-11T02:21:27.634Z,15.77
2023-02-11T02:24:18.856Z,13.07
2023-02-11T02:26:45.354Z,14.23
2023-02-11T02:29:27.153Z,14.32
2023-02-11T02:32:30.866Z,14.15
2023-02-11T02:35:06.897Z,13.85
2023-02-11T02:38:08.188Z,13.80
2023-02-11T02:40:40.998Z,13.63
2023-02-11T02:43:09.833Z,14.65
2023-02-11T02:45:36.353Z,15.65
2023-02-11T02:48:03.144Z,15.63
2023-02-11T02:50:33.943Z,16.00
2023-02-11T02:53:26.693Z,15.50
2023-02-11T02:56:37.878Z,15.27
2023-02-11T02:59:10.766Z,15.07
2023-02-11T03:01:43.625Z,15.70
2023-02-11T03:04:10.171Z,15.50
2023-02-11T03:06:47.038Z,15.48
2023-02-11T03:09:24.138Z,15.45
2023-02-11T03:11:50.750Z,16.15
2023-02-11T03:14:19.266Z,16.05
2023-02-11T03:16:48.376Z,15.37
2023-02-11T03:19:26.744Z,16.05
2023-02-11T03:21:54.832Z,16.25
2023-02-11T03:24:30.635Z,14.90
2023-02-11T03:27:01.493Z,15.40
2023-02-11T03:29:37.480Z,16.00
2023-02-11T03:32:16.009Z,14.57
2023-02-11T03:34:59.082Z,15.70
2023-02-11T03:37:50.824Z,15.57
2023-02-11T03:40:26.862Z,15.02
2023-02-11T03:42:59.611Z,14.97
2023-02-11T03:45:27.724Z,15.75
2023-02-11T03:48:01.517Z,15.88
2023-02-11T03:50:32.474Z,15.02
2023-02-11T03:53:01.967Z,16.35
2023-02-11T03:55:29.907Z,15.75
2023-02-11T03:57:56.837Z,15.55
2023-02-11T04:00:33.631Z,16.73
2023-02-11T04:03:00.418Z,16.80
2023-02-11T04:05:27.205Z,13.63
2023-02-11T04:07:53.823Z,17.33
2023-02-11T04:10:20.556Z,15.15
2023-02-11T04:12:47.132Z,16.05
2023-02-11T04:15:13.652Z,15.18
2023-02-11T04:17:41.343Z,16.20
2023-02-11T04:20:08.761Z,16.73
2023-02-11T04:22:36.159Z,16.27
2023-02-11T04:25:03.946Z,16.65
2023-02-11T04:27:30.587Z,17.08
2023-02-11T04:29:57.858Z,16.95
2023-02-11T04:32:24.409Z,16.40
2023-02-11T04:34:51.850Z,17.27
2023-02-11T04:37:18.516Z,17.70
2023-02-11T04:39:45.041Z,15.98
2023-02-11T04:42:12.294Z,17.00
2023-02-11T04:44:38.928Z,13.17
2023-02-11T04:47:05.519Z,12.60
2023-02-11T04:49:32.173Z,17.48
2023-02-11T04:51:58.742Z,10.45
2023-02-11T04:54:25.393Z,15.73
2023-02-11T04:56:51.979Z,17.55
2023-02-11T04:59:18.762Z,18.23
2023-02-11T05:01:45.286Z,17.83
2023-02-11T05:04:11.934Z,17.80
2023-02-11T05:06:39.693Z,13.80
2023-02-11T05:09:06.636Z,16.67
2023-02-11T05:11:33.328Z,17.15
2023-02-11T05:13:59.943Z,18.42
2023-02-11T05:16:26.456Z,18.92
2023-02-11T05:18:55.423Z,18.70
2023-02-11T05:21:22.452Z,19.42
2023-02-11T05:23:48.984Z,18.20
2023-02-11T05:26:16.247Z,14.80
2023-02-11T05:28:43.072Z,19.35
2023-02-11T05:31:10.557Z,16.60
2023-02-11T05:33:37.647Z,17.95
2023-02-11T05:36:07.477Z,17.65
2023-02-11T05:38:34.710Z,16.55
2023-02-11T05:41:01.424Z,20.77
2023-02-11T05:43:28.061Z,20.10
2023-02-11T05:45:54.837Z,21.15
2023-02-11T05:48:21.516Z,19.00
2023-02-11T05:50:48.118Z,16.08
2023-02-11T05:53:14.795Z,19.90
2023-02-11T05:55:41.647Z,20.65
2023-02-11T05:58:08.319Z,20.38
2023-02-11T06:00:35.594Z,20.83
2023-02-11T06:03:04.177Z,18.73
2023-02-11T06:05:31.319Z,14.65
2023-02-11T06:07:58.055Z,21.13
2023-02-11T06:10:24.618Z,20.37
2023-02-11T06:12:51.231Z,21.17
2023-02-11T06:15:18.022Z,21.35
2023-02-11T06:17:44.728Z,21.38
2023-02-11T06:20:11.518Z,20.17
2023-02-11T06:22:38.214Z,21.15
2023-02-11T06:25:05.507Z,16.48
2023-02-11T06:27:32.185Z,22.30
2023-02-11T06:29:58.773Z,21.30
2023-02-11T06:32:43.301Z,20.45
2023-02-11T06:35:12.347Z,21.35
2023-02-11T06:37:41.543Z,21.52
2023-02-11T06:40:09.561Z,22.85
2023-02-11T06:42:38.668Z,19.65
2023-02-11T06:45:06.171Z,22.67
2023-02-11T06:47:32.930Z,21.45
2023-02-11T06:49:59.729Z,22.40
2023-02-11T06:52:26.342Z,23.92
2023-02-11T06:54:52.869Z,22.55
2023-02-11T06:57:19.659Z,23.58
2023-02-11T06:59:46.994Z,22.67
2023-02-11T07:02:13.529Z,21.95
2023-02-11T07:04:40.092Z,21.30
2023-02-11T07:07:06.640Z,19.58
2023-02-11T07:09:33.235Z,22.10
2023-02-11T07:11:59.868Z,21.65
2023-02-11T07:14:26.444Z,20.83
2023-02-11T07:16:53.038Z,21.60
2023-02-11T07:19:20.006Z,22.02
2023-02-11T07:21:46.682Z,23.40
2023-02-11T07:24:13.193Z,23.00
2023-02-11T07:26:40.820Z,16.23
2023-02-11T07:29:07.386Z,22.00
2023-02-11T07:31:34.131Z,23.83
2023-02-11T07:34:01.807Z,21.23
2023-02-11T07:36:31.688Z,23.23
2023-02-11T07:38:58.713Z,24.58
2023-02-11T07:41:26.017Z,23.35
2023-02-11T07:43:52.750Z,18.70
2023-02-11T07:46:22.514Z,22.45
2023-02-11T07:48:49.405Z,22.50
2023-02-11T07:51:19.001Z,23.23
2023-02-11T07:53:46.524Z,22.23
2023-02-11T07:56:15.188Z,20.25
2023-02-11T07:58:43.038Z,21.27
2023-02-11T08:01:12.294Z,19.98
2023-02-11T08:03:39.859Z,19.77
2023-02-11T08:06:08.826Z,21.88
2023-02-11T08:08:35.479Z,20.83
2023-02-11T08:11:14.690Z,22.15
2023-02-11T08:13:42.188Z,22.65
2023-02-11T08:16:09.446Z,22.42
2023-02-11T08:18:36.432Z,22.25
2023-02-11T08:21:07.967Z,22.35
2023-02-11T08:23:37.306Z,20.10
2023-02-11T08:26:06.312Z,22.83
2023-02-11T08:28:36.620Z,20.35
2023-02-11T08:31:12.559Z,22.42
2023-02-11T08:33:40.964Z,22.52
2023-02-11T08:36:12.277Z,21.95
2023-02-11T08:38:39.250Z,21.67
2023-02-11T08:41:06.500Z,19.17
2023-02-11T08:43:33.674Z,19.77
2023-02-11T08:46:02.320Z,22.58
2023-02-11T08:48:29.886Z,21.85
2023-02-11T08:50:57.312Z,21.27
2023-02-11T08:53:24.305Z,21.42
2023-02-11T08:55:52.746Z,21.77
2023-02-11T08:58:20.521Z,22.23
2023-02-11T09:00:48.840Z,22.88
2023-02-11T09:03:16.153Z,20.17
2023-02-11T09:05:47.271Z,21.33
2023-02-11T09:08:14.692Z,21.67
2023-02-11T09:10:41.369Z,21.08
2023-02-11T09:13:08.442Z,18.23
2023-02-11T09:15:35.368Z,20.77
2023-02-11T09:18:02.454Z,20.33
2023-02-11T09:20:29.140Z,19.58
2023-02-11T09:22:58.292Z,20.08
2023-02-11T09:25:25.098Z,20.98
2023-02-11T09:27:53.636Z,20.13
2023-02-11T09:30:21.063Z,19.38
2023-02-11T09:32:47.781Z,18.77
2023-02-11T09:35:14.444Z,17.95
2023-02-11T09:37:41.646Z,17.65
2023-02-11T09:40:09.152Z,18.60
2023-02-11T09:43:01.766Z,18.73
2023-02-11T09:45:31.275Z,16.92
2023-02-11T09:48:27.340Z,18.30
2023-02-11T09:51:00.387Z,16.98
2023-02-11T09:53:29.562Z,15.63
2023-02-11T09:55:59.960Z,15.40
2023-02-11T09:58:35.075Z,16.10
2023-02-11T10:01:12.835Z,17.48
2023-02-11T10:03:57.722Z,24.17
2023-02-11T10:06:48.934Z,17.13
2023-02-11T10:09:46.492Z,14.50
2023-02-11T10:12:22.175Z,16.73
2023-02-11T10:15:31.396Z,16.50
2023-02-11T10:18:16.315Z,16.10
2023-02-11T10:21:14.968Z,15.77
2023-02-11T10:23:46.585Z,16.33
2023-02-11T10:26:17.194Z,16.63
2023-02-11T10:28:49.522Z,16.17
2023-02-11T10:31:18.926Z,17.73
2023-02-11T10:34:09.666Z,14.38
2023-02-11T10:36:39.852Z,15.73
2023-02-11T10:39:21.460Z,16.42
2023-02-11T10:41:53.745Z,15.20
2023-02-11T10:44:28.785Z,16.02
2023-02-11T10:46:57.260Z,14.48
2023-02-11T10:49:35.117Z,15.73
2023-02-11T10:52:24.595Z,15.43
2023-02-11T10:55:00.268Z,16.92
2023-02-11T10:57:32.861Z,16.00
2023-02-11T11:00:06.907Z,16.02
2023-02-11T11:02:38.662Z,16.50
2023-02-11T11:05:36.048Z,17.98
2023-02-11T11:08:06.985Z,14.50
2023-02-11T11:10:45.806Z,16.85
2023-02-11T11:13:35.427Z,16.67
2023-02-11T11:16:14.259Z,14.50
2023-02-11T11:18:43.782Z,15.88
2023-02-11T11:21:30.228Z,14.15
2023-02-11T11:24:02.067Z,15.95
2023-02-11T11:26:56.893Z,14.25
2023-02-11T11:29:30.368Z,15.25
2023-02-11T11:32:01.184Z,15.60
2023-02-11T11:34:37.131Z,15.18
2023-02-11T11:37:24.518Z,14.70
2023-02-11T11:40:02.318Z,12.68
2023-02-11T11:42:35.342Z,13.35
2023-02-11T11:45:04.504Z,14.02
2023-02-11T11:47:42.253Z,11.60
2023-02-11T11:50:34.052Z,12.38
2023-02-11T11:53:21.742Z,12.25
2023-02-11T11:56:00.852Z,10.65
2023-02-11T11:58:28.709Z,12.30
2023-02-11T12:01:01.497Z,10.50
2023-02-11T12:03:48.879Z,12.02
2023-02-11T12:06:44.012Z,10.30
2023-02-11T12:09:52.983Z,11.45
2023-02-11T12:12:36.846Z,11.70
2023-02-11T12:15:39.177Z,10.02
2023-02-11T12:18:05.696Z,10.82
2023-02-11T12:20:40.628Z,11.15
2023-02-11T12:23:27.402Z,11.23
2023-02-11T12:26:13.760Z,10.98
2023-02-11T12:29:03.369Z,8.63
2023-02-11T12:31:49.363Z,11.13
2023-02-11T12:34:40.794Z,9.45
2023-02-11T12:37:27.607Z,10.32
2023-02-11T12:40:18.298Z,9.27
2023-02-11T12:43:18.238Z,9.85
2023-02-11T12:46:05.100Z,9.63
2023-02-11T12:48:49.833Z,10.55
2023-02-11T12:51:35.809Z,10.65
2023-02-11T12:54:24.283Z,10.88
2023-02-11T12:57:21.159Z,9.52
2023-02-11T12:59:50.895Z,10.63
2023-02-11T13:02:27.086Z,10.20
2023-02-11T13:05:19.459Z,10.43
2023-02-11T13:07:47.516Z,10.32
2023-02-11T13:10:13.983Z,9.18
2023-02-11T13:13:05.089Z,10.07
2023-02-11T13:15:32.902Z,9.75
2023-02-11T13:18:21.670Z,9.20
2023-02-11T13:20:52.156Z,9.82
2023-02-11T13:23:21.965Z,10.10
2023-02-11T13:25:58.612Z,9.45
2023-02-11T13:29:05.146Z,9.15
2023-02-11T13:31:32.219Z,9.38
2023-02-11T13:33:58.896Z,8.48
2023-02-11T13:36:27.674Z,9.35
2023-02-11T13:39:05.226Z,9.10
2023-02-11T13:41:39.125Z,8.70
2023-02-11T13:44:26.630Z,9.75
2023-02-11T13:47:02.219Z,10.27
2023-02-11T13:49:36.607Z,9.27
2023-02-11T13:52:06.618Z,9.10
2023-02-11T13:54:39.390Z,9.82
2023-02-11T13:57:20.963Z,8.73
2023-02-11T13:59:49.120Z,9.60
2023-02-11T14:02:49.714Z,8.55
2023-02-11T14:05:51.202Z,9.00
2023-02-11T14:08:43.499Z,12.43
2023-02-11T14:11:41.576Z,9.70
2023-02-11T14:14:08.303Z,9.38
2023-02-11T14:16:38.498Z,9.02
2023-02-11T14:19:06.705Z,8.60
2023-02-11T14:21:37.096Z,9.15
2023-02-11T14:24:07.050Z,8.75
2023-02-11T14:26:57.918Z,9.15
2023-02-11T14:29:45.914Z,8.10
2023-02-11T14:32:49.124Z,8.68
2023-02-11T14:35:40.165Z,8.30
2023-02-11T14:38:40.519Z,7.88
2023-02-11T14:41:16.104Z,7.55
2023-02-11T14:43:46.870Z,9.38
2023-02-11T14:46:16.496Z,8.95
2023-02-11T14:48:50.213Z,8.48
2023-02-11T14:51:25.746Z,8.05
2023-02-11T14:53:57.834Z,7.90
2023-02-11T14:56:31.056Z,7.05
2023-02-11T14:58:58.807Z,7.55
2023-02-11T15:01:35.260Z,7.88
2023-02-11T15:04:05.358Z,7.22
2023-02-11T15:06:36.535Z,6.72
2023-02-11T15:09:18.916Z,6.88
2023-02-11T15:11:48.544Z,6.90
2023-02-11T15:14:23.853Z,7.15
2023-02-11T15:16:56.213Z,7.32
2023-02-11T15:19:36.475Z,7.03
2023-02-11T15:22:27.154Z,7.00
2023-02-11T15:25:09.696Z,6.35
2023-02-11T15:27:44.992Z,7.38
2023-02-11T15:30:23.794Z,7.05
2023-02-11T15:33:00.024Z,6.97
2023-02-11T15:35:29.821Z,7.57
2023-02-11T15:37:58.677Z,7.03
2023-02-11T15:40:32.450Z,7.85
2023-02-11T15:43:04.392Z,6.97
2023-02-11T15:45:35.338Z,7.25
2023-02-11T15:48:17.553Z,7.30
2023-02-11T15:50:52.228Z,6.47
2023-02-11T15:53:25.102Z,6.18
2023-02-11T15:55:59.438Z,7.47
2023-02-11T15:58:26.063Z,6.38
2023-02-11T16:00:59.706Z,7.15
2023-02-11T16:03:32.465Z,6.50
2023-02-11T16:06:35.840Z,6.60
2023-02-11T16:09:08.393Z,6.30
2023-02-11T16:11:53.674Z,5.85
2023-02-11T16:14:27.692Z,6.20
2023-02-11T16:17:09.784Z,5.97
2023-02-11T16:19:42.636Z,6.75
2023-02-11T16:22:15.526Z,6.78
2023-02-11T16:24:42.434Z,6.35
2023-02-11T16:27:34.007Z,7.03
2023-02-11T16:30:00.705Z,6.10
2023-02-11T16:32:30.019Z,7.50
2023-02-11T16:34:58.645Z,6.25
2023-02-11T16:37:25.750Z,6.57
2023-02-11T16:39:58.601Z,6.55
2023-02-11T16:42:25.328Z,6.38
2023-02-11T16:44:51.937Z,5.85
2023-02-11T16:47:25.759Z,6.30
2023-02-11T16:49:52.995Z,5.97
2023-02-11T16:52:21.604Z,4.82
2023-02-11T16:54:48.324Z,5.10
2023-02-11T16:57:28.177Z,4.40
2023-02-11T16:59:58.145Z,4.53
2023-02-11T17:02:28.188Z,4.20
2023-02-11T17:04:56.369Z,4.15
2023-02-11T17:07:23.022Z,4.43
2023-02-11T17:09:49.815Z,5.32
2023-02-11T17:12:16.373Z,5.05
2023-02-11T17:14:43.544Z,4.95
2023-02-11T17:17:11.384Z,5.25
2023-02-11T17:19:38.710Z,4.47
2023-02-11T17:22:05.958Z,4.95
2023-02-11T17:24:32.793Z,4.30
2023-02-11T17:26:59.462Z,5.05
2023-02-11T17:29:26.124Z,4.65
2023-02-11T17:31:53.370Z,4.65
2023-02-11T17:34:21.793Z,4.82
2023-02-11T17:36:48.940Z,4.07
2023-02-11T17:39:15.743Z,4.20
2023-02-11T17:41:42.334Z,4.88
2023-02-11T17:44:12.154Z,4.65
2023-02-11T17:46:38.753Z,4.40
2023-02-11T17:49:05.477Z,4.30
2023-02-11T17:51:36.873Z,5.32
2023-02-11T17:54:10.410Z,5.45
2023-02-11T17:56:38.436Z,5.57
2023-02-11T17:59:06.391Z,5.57
2023-02-11T18:01:34.020Z,5.95
2023-02-11T18:04:01.157Z,4.85
2023-02-11T18:06:29.051Z,5.10
2023-02-11T18:08:58.030Z,5.60
2023-02-11T18:11:27.963Z,5.40
2023-02-11T18:13:54.633Z,5.38
2023-02-11T18:16:23.400Z,5.30
2023-02-11T18:18:50.766Z,5.50
2023-02-11T18:21:20.293Z,5.70
2023-02-11T18:23:48.053Z,5.13
2023-02-11T18:26:16.673Z,5.28
2023-02-11T18:28:45.859Z,5.45
2023-02-11T18:31:14.082Z,6.20
2023-02-11T18:33:42.110Z,5.78
2023-02-11T18:36:11.978Z,5.68
2023-02-11T18:38:39.251Z,6.07
2023-02-11T18:41:07.403Z,6.30
2023-02-11T18:43:34.903Z,6.15
2023-02-11T18:46:02.954Z,5.97
2023-02-11T18:48:29.743Z,6.60
2023-02-11T18:50:56.286Z,6.10
2023-02-11T18:53:24.540Z,5.63
2023-02-11T18:55:53.258Z,5.95
2023-02-11T18:58:21.291Z,5.30
2023-02-11T19:00:48.804Z,6.00
2023-02-11T19:03:15.664Z,5.90
2023-02-11T19:05:44.712Z,5.82
2023-02-11T19:08:11.601Z,5.95
2023-02-11T19:10:46.170Z,6.25
2023-02-11T19:13:13.727Z,5.82
2023-02-11T19:15:42.287Z,6.13
2023-02-11T19:18:09.261Z,6.03
2023-02-11T19:20:35.818Z,6.10
2023-02-11T19:23:02.621Z,5.80
2023-02-11T19:25:29.202Z,5.20
2023-02-11T19:27:55.823Z,5.40
2023-02-11T19:30:22.545Z,5.57
2023-02-11T19:32:52.425Z,5.50
2023-02-11T19:35:21.819Z,4.95
2023-02-11T19:37:48.680Z,5.35
2023-02-11T19:40:19.150Z,5.43
2023-02-11T19:42:45.852Z,4.75
2023-02-11T19:45:12.697Z,5.15
2023-02-11T19:47:39.272Z,5.38
2023-02-11T19:50:06.534Z,5.70
2023-02-11T19:52:33.142Z,5.90
2023-02-11T19:55:00.702Z,5.40
2023-02-11T19:57:27.361Z,6.00
2023-02-11T19:59:54.989Z,5.57
2023-02-11T20:02:21.902Z,5.40
2023-02-11T20:04:48.725Z,5.30
2023-02-11T20:07:15.718Z,5.30
2023-02-11T20:09:42.593Z,5.55
2023-02-11T20:12:09.706Z,5.53
2023-02-11T20:14:36.474Z,5.32
2023-02-11T20:17:03.229Z,5.27
2023-02-11T20:19:30.710Z,5.10
2023-02-11T20:21:57.540Z,4.95
2023-02-11T20:24:24.985Z,5.45
2023-02-11T20:26:55.273Z,4.78
2023-02-11T20:29:22.899Z,5.18
2023-02-11T20:31:50.244Z,4.95
2023-02-11T20:34:17.972Z,6.97
2023-02-11T20:36:51.486Z,5.85
2023-02-11T20:39:21.579Z,4.90
2023-02-11T20:41:48.920Z,5.07
2023-02-11T20:44:15.591Z,5.10
2023-02-11T20:46:46.317Z,4.82
2023-02-11T20:49:15.649Z,5.00
2023-02-11T20:51:42.766Z,5.00
2023-02-11T20:54:18.142Z,4.95
2023-02-11T20:56:47.949Z,5.40
2023-02-11T20:59:16.766Z,4.35
2023-02-11T21:01:47.961Z,4.10
2023-02-11T21:04:20.170Z,4.60
2023-02-11T21:06:49.467Z,4.38
2023-02-11T21:09:21.728Z,3.95
2023-02-11T21:11:49.807Z,4.25
2023-02-11T21:14:17.836Z,4.35
2023-02-11T21:16:45.261Z,4.40
2023-02-11T21:19:12.082Z,3.83
2023-02-11T21:21:39.200Z,4.15
2023-02-11T21:24:06.750Z,4.25
2023-02-11T21:26:35.373Z,3.95
2023-02-11T21:29:03.895Z,4.05
2023-02-11T21:31:32.291Z,3.83
2023-02-11T21:34:02.165Z,4.40
2023-02-11T21:36:29.875Z,4.15
2023-02-11T21:38:56.459Z,3.97
2023-02-11T21:41:23.099Z,3.53
2023-02-11T21:43:50.598Z,3.80
2023-02-11T21:46:17.953Z,3.50
2023-02-11T21:48:44.722Z,3.70
2023-02-11T21:51:15.213Z,3.72
2023-02-11T21:53:42.100Z,4.20
2023-02-11T21:56:10.362Z,4.15
2023-02-11T21:58:37.248Z,3.97
2023-02-11T22:01:14.999Z,3.65
2023-02-11T22:03:42.710Z,4.30
2023-02-11T22:06:15.731Z,4.00
2023-02-11T22:08:42.328Z,3.40
2023-02-11T22:11:12.138Z,3.30
2023-02-11T22:13:39.535Z,3.08
2023-02-11T22:16:08.984Z,3.75
2023-02-11T22:18:36.104Z,3.28
2023-02-11T22:21:06.198Z,3.30
2023-02-11T22:23:33.267Z,3.55
2023-02-11T22:26:04.784Z,3.28
2023-02-11T22:28:31.515Z,3.75
2023-02-11T22:30:58.736Z,3.53
2023-02-11T22:33:26.946Z,3.47
2023-02-11T22:36:01.734Z,3.40
2023-02-11T22:38:29.325Z,3.47
2023-02-11T22:40:55.969Z,3.97
2023-02-11T22:43:22.849Z,3.70
2023-02-11T22:45:50.448Z,3.58
2023-02-11T22:48:17.499Z,3.45
2023-02-11T22:50:44.501Z,3.88
2023-02-11T22:53:11.114Z,3.97
2023-02-11T22:55:39.128Z,3.53
2023-02-11T22:58:06.216Z,3.53
2023-02-11T23:00:37.886Z,3.72
2023-02-11T23:03:05.690Z,5.20
2023-02-11T23:05:38.950Z,4.40
2023-02-11T23:08:06.025Z,3.55
2023-02-11T23:10:35.021Z,3.20
2023-02-11T23:13:02.949Z,3.90
2023-02-11T23:15:29.940Z,3.67
2023-02-11T23:17:57.047Z,3.80
2023-02-11T23:20:23.622Z,3.85
2023-02-11T23:22:50.219Z,4.17
2023-02-11T23:25:16.860Z,5.55
2023-02-11T23:27:43.381Z,3.92
2023-02-11T23:30:10.649Z,3.83
2023-02-11T23:32:40.800Z,3.97
2023-02-11T23:35:07.596Z,4.07
2023-02-11T23:37:34.204Z,3.95
2023-02-11T23:40:00.789Z,3.72
2023-02-11T23:42:27.388Z,3.97
2023-02-11T23:44:54.011Z,4.57
2023-02-11T23:47:20.822Z,3.90
2023-02-11T23:49:47.453Z,4.32
2023-02-11T23:52:14.203Z,4.40
2023-02-11T23:54:40.942Z,3.80
2023-02-11T23:57:07.659Z,3.85
2023-02-11T23:59:34.254Z,4.35
